sensor_id;sensor_type;location;lat;lon;timestamp;P1;durP1;ratioP1;P2;durP2;ratioP2
75417;SDS011;63997;52.112;5.420;2023-09-12T00:00:05;30.38;;;19.33;;
75417;SDS011;63997;52.112;5.420;2023-09-12T00:02:32;25.07;;;16.67;;
75417;SDS011;63997;52.112;5.420;2023-09-12T00:04:58;24.58;;;17.42;;
75417;SDS011;63997;52.112;5.420;2023-09-12T00:07:25;24.33;;;16.73;;
75417;SDS011;63997;52.112;5.420;2023-09-12T00:09:51;92.03;;;15.35;;
75417;SDS011;63997;52.112;5.420;2023-09-12T00:12:21;38.80;;;11.15;;
75417;SDS011;63997;52.112;5.420;2023-09-12T00:14:49;47.37;;;9.67;;
75417;SDS011;63997;52.112;5.420;2023-09-12T00:17:15;39.25;;;10.40;;
75417;SDS011;63997;52.112;5.420;2023-09-12T00:19:42;90.35;;;12.88;;
75417;SDS011;63997;52.112;5.420;2023-09-12T00:22:09;56.97;;;12.07;;
75417;SDS011;63997;52.112;5.420;2023-09-12T00:24:35;19.45;;;9.50;;
75417;SDS011;63997;52.112;5.420;2023-09-12T00:27:02;24.63;;;12.03;;
75417;SDS011;63997;52.112;5.420;2023-09-12T00:29:31;17.20;;;10.20;;
75417;SDS011;63997;52.112;5.420;2023-09-12T00:31:57;15.77;;;9.63;;
75417;SDS011;63997;52.112;5.420;2023-09-12T00:34:24;13.88;;;9.55;;
75417;SDS011;63997;52.112;5.420;2023-09-12T00:36:50;13.18;;;7.90;;
75417;SDS011;63997;52.112;5.420;2023-09-12T00:39:17;39.60;;;8.40;;
75417;SDS011;63997;52.112;5.420;2023-09-12T00:41:43;60.75;;;9.23;;
75417;SDS011;63997;52.112;5.420;2023-09-12T00:44:10;18.08;;;5.72;;
75417;SDS011;63997;52.112;5.420;2023-09-12T00:46:36;13.43;;;4.35;;
75417;SDS011;63997;52.112;5.420;2023-09-12T00:49:04;13.88;;;5.45;;
75417;SDS011;63997;52.112;5.420;2023-09-12T00:51:34;19.07;;;7.20;;
75417;SDS011;63997;52.112;5.420;2023-09-12T00:54:01;24.48;;;8.70;;
75417;SDS011;63997;52.112;5.420;2023-09-12T00:56:28;19.65;;;8.13;;
75417;SDS011;63997;52.112;5.420;2023-09-12T00:58:55;26.33;;;7.80;;
75417;SDS011;63997;52.112;5.420;2023-09-12T01:01:22;16.30;;;7.07;;
75417;SDS011;63997;52.112;5.420;2023-09-12T01:03:49;35.50;;;7.90;;
75417;SDS011;63997;52.112;5.420;2023-09-12T01:06:17;55.22;;;10.93;;
75417;SDS011;63997;52.112;5.420;2023-09-12T01:08:46;105.28;;;12.82;;
75417;SDS011;63997;52.112;5.420;2023-09-12T01:11:13;51.13;;;12.35;;
75417;SDS011;63997;52.112;5.420;2023-09-12T01:13:40;37.22;;;11.57;;
75417;SDS011;63997;52.112;5.420;2023-09-12T01:16:06;18.93;;;8.63;;
75417;SDS011;63997;52.112;5.420;2023-09-12T01:18:33;23.42;;;8.15;;
75417;SDS011;63997;52.112;5.420;2023-09-12T01:21:12;11.70;;;7.18;;
75417;SDS011;63997;52.112;5.420;2023-09-12T01:24:00;21.73;;;9.02;;
75417;SDS011;63997;52.112;5.420;2023-09-12T01:29:10;45.00;;;11.57;;
75417;SDS011;63997;52.112;5.420;2023-09-12T01:31:39;74.43;;;11.77;;
75417;SDS011;63997;52.112;5.420;2023-09-12T01:34:10;60.38;;;10.23;;
75417;SDS011;63997;52.112;5.420;2023-09-12T01:36:37;19.20;;;9.98;;
75417;SDS011;63997;52.112;5.420;2023-09-12T01:39:04;23.27;;;11.13;;
75417;SDS011;63997;52.112;5.420;2023-09-12T01:41:31;25.13;;;9.80;;
75417;SDS011;63997;52.112;5.420;2023-09-12T01:44:00;19.90;;;10.38;;
75417;SDS011;63997;52.112;5.420;2023-09-12T01:46:28;18.52;;;12.02;;
75417;SDS011;63997;52.112;5.420;2023-09-12T01:48:57;11.57;;;6.97;;
75417;SDS011;63997;52.112;5.420;2023-09-12T01:51:25;8.50;;;5.68;;
75417;SDS011;63997;52.112;5.420;2023-09-12T01:53:54;17.73;;;6.43;;
75417;SDS011;63997;52.112;5.420;2023-09-12T01:56:21;18.85;;;7.18;;
75417;SDS011;63997;52.112;5.420;2023-09-12T01:58:48;10.07;;;7.30;;
75417;SDS011;63997;52.112;5.420;2023-09-12T02:01:14;15.23;;;7.88;;
75417;SDS011;63997;52.112;5.420;2023-09-12T02:03:41;23.42;;;7.65;;
75417;SDS011;63997;52.112;5.420;2023-09-12T02:06:07;12.83;;;8.30;;
75417;SDS011;63997;52.112;5.420;2023-09-12T02:08:34;44.20;;;8.27;;
75417;SDS011;63997;52.112;5.420;2023-09-12T02:11:00;60.80;;;9.90;;
75417;SDS011;63997;52.112;5.420;2023-09-12T02:13:27;15.95;;;8.38;;
75417;SDS011;63997;52.112;5.420;2023-09-12T02:16:00;16.60;;;7.18;;
75417;SDS011;63997;52.112;5.420;2023-09-12T02:18:27;37.00;;;12.90;;
75417;SDS011;63997;52.112;5.420;2023-09-12T02:20:54;30.98;;;9.68;;
75417;SDS011;63997;52.112;5.420;2023-09-12T02:23:20;58.38;;;11.60;;
75417;SDS011;63997;52.112;5.420;2023-09-12T02:25:46;33.65;;;10.02;;
75417;SDS011;63997;52.112;5.420;2023-09-12T02:28:13;26.15;;;11.15;;
75417;SDS011;63997;52.112;5.420;2023-09-12T02:30:39;52.53;;;11.43;;
75417;SDS011;63997;52.112;5.420;2023-09-12T02:33:09;36.38;;;11.98;;
75417;SDS011;63997;52.112;5.420;2023-09-12T02:35:35;32.03;;;8.88;;
75417;SDS011;63997;52.112;5.420;2023-09-12T02:38:02;14.00;;;9.95;;
75417;SDS011;63997;52.112;5.420;2023-09-12T02:40:28;28.35;;;9.88;;
75417;SDS011;63997;52.112;5.420;2023-09-12T02:42:55;11.73;;;8.53;;
75417;SDS011;63997;52.112;5.420;2023-09-12T02:45:21;15.15;;;9.07;;
75417;SDS011;63997;52.112;5.420;2023-09-12T02:47:48;17.27;;;9.40;;
75417;SDS011;63997;52.112;5.420;2023-09-12T02:50:14;13.18;;;10.18;;
75417;SDS011;63997;52.112;5.420;2023-09-12T02:52:40;13.40;;;9.50;;
75417;SDS011;63997;52.112;5.420;2023-09-12T02:55:07;10.67;;;8.83;;
75417;SDS011;63997;52.112;5.420;2023-09-12T02:57:34;9.43;;;8.52;;
75417;SDS011;63997;52.112;5.420;2023-09-12T03:00:00;18.40;;;9.50;;
75417;SDS011;63997;52.112;5.420;2023-09-12T03:02:26;13.45;;;8.93;;
75417;SDS011;63997;52.112;5.420;2023-09-12T03:04:55;9.77;;;8.52;;
75417;SDS011;63997;52.112;5.420;2023-09-12T03:07:22;11.47;;;7.13;;
75417;SDS011;63997;52.112;5.420;2023-09-12T03:09:48;7.50;;;6.72;;
75417;SDS011;63997;52.112;5.420;2023-09-12T03:12:16;12.13;;;8.25;;
75417;SDS011;63997;52.112;5.420;2023-09-12T03:14:42;11.15;;;9.93;;
75417;SDS011;63997;52.112;5.420;2023-09-12T03:17:09;9.25;;;8.35;;
75417;SDS011;63997;52.112;5.420;2023-09-12T03:19:35;9.73;;;8.80;;
75417;SDS011;63997;52.112;5.420;2023-09-12T03:22:02;8.55;;;7.78;;
75417;SDS011;63997;52.112;5.420;2023-09-12T03:24:28;7.72;;;6.88;;
75417;SDS011;63997;52.112;5.420;2023-09-12T03:26:55;7.65;;;5.03;;
75417;SDS011;63997;52.112;5.420;2023-09-12T03:29:21;18.67;;;5.20;;
75417;SDS011;63997;52.112;5.420;2023-09-12T03:31:49;11.53;;;5.00;;
75417;SDS011;63997;52.112;5.420;2023-09-12T03:34:15;23.60;;;7.55;;
75417;SDS011;63997;52.112;5.420;2023-09-12T03:36:41;9.20;;;7.90;;
75417;SDS011;63997;52.112;5.420;2023-09-12T03:39:08;10.63;;;8.70;;
75417;SDS011;63997;52.112;5.420;2023-09-12T03:41:35;10.95;;;9.02;;
75417;SDS011;63997;52.112;5.420;2023-09-12T03:44:01;13.03;;;9.50;;
75417;SDS011;63997;52.112;5.420;2023-09-12T03:46:28;7.07;;;6.38;;
75417;SDS011;63997;52.112;5.420;2023-09-12T03:48:55;8.35;;;5.78;;
75417;SDS011;63997;52.112;5.420;2023-09-12T03:51:21;9.13;;;6.60;;
75417;SDS011;63997;52.112;5.420;2023-09-12T03:53:48;11.15;;;7.13;;
75417;SDS011;63997;52.112;5.420;2023-09-12T03:56:16;8.47;;;7.33;;
75417;SDS011;63997;52.112;5.420;2023-09-12T03:58:46;8.70;;;7.90;;
75417;SDS011;63997;52.112;5.420;2023-09-12T04:01:12;10.50;;;8.43;;
75417;SDS011;63997;52.112;5.420;2023-09-12T04:03:39;8.32;;;7.30;;
75417;SDS011;63997;52.112;5.420;2023-09-12T04:06:05;8.63;;;7.65;;
75417;SDS011;63997;52.112;5.420;2023-09-12T04:08:33;11.00;;;8.20;;
75417;SDS011;63997;52.112;5.420;2023-09-12T04:10:59;23.00;;;8.80;;
75417;SDS011;63997;52.112;5.420;2023-09-12T04:13:26;13.55;;;8.13;;
75417;SDS011;63997;52.112;5.420;2023-09-12T04:15:52;9.27;;;7.15;;
75417;SDS011;63997;52.112;5.420;2023-09-12T04:18:19;11.15;;;7.93;;
75417;SDS011;63997;52.112;5.420;2023-09-12T04:20:45;13.00;;;8.00;;
75417;SDS011;63997;52.112;5.420;2023-09-12T04:23:12;22.15;;;9.43;;
75417;SDS011;63997;52.112;5.420;2023-09-12T04:25:41;14.80;;;9.80;;
75417;SDS011;63997;52.112;5.420;2023-09-12T04:28:08;21.65;;;9.07;;
75417;SDS011;63997;52.112;5.420;2023-09-12T04:30:35;12.68;;;8.57;;
75417;SDS011;63997;52.112;5.420;2023-09-12T04:33:02;15.80;;;8.90;;
75417;SDS011;63997;52.112;5.420;2023-09-12T04:35:29;12.60;;;9.05;;
75417;SDS011;63997;52.112;5.420;2023-09-12T04:37:59;23.08;;;9.27;;
75417;SDS011;63997;52.112;5.420;2023-09-12T04:40:25;23.45;;;9.10;;
75417;SDS011;63997;52.112;5.420;2023-09-12T04:42:52;12.75;;;9.02;;
75417;SDS011;63997;52.112;5.420;2023-09-12T04:45:20;15.50;;;10.30;;
75417;SDS011;63997;52.112;5.420;2023-09-12T04:47:46;16.35;;;10.15;;
75417;SDS011;63997;52.112;5.420;2023-09-12T04:50:13;19.52;;;9.73;;
75417;SDS011;63997;52.112;5.420;2023-09-12T04:52:39;15.75;;;9.30;;
75417;SDS011;63997;52.112;5.420;2023-09-12T04:55:06;23.02;;;10.10;;
75417;SDS011;63997;52.112;5.420;2023-09-12T04:57:32;34.20;;;11.80;;
75417;SDS011;63997;52.112;5.420;2023-09-12T04:59:59;22.92;;;10.15;;
75417;SDS011;63997;52.112;5.420;2023-09-12T05:02:25;24.67;;;9.75;;
75417;SDS011;63997;52.112;5.420;2023-09-12T05:04:52;23.60;;;9.18;;
75417;SDS011;63997;52.112;5.420;2023-09-12T05:07:18;28.80;;;10.05;;
75417;SDS011;63997;52.112;5.420;2023-09-12T05:09:45;15.70;;;10.57;;
75417;SDS011;63997;52.112;5.420;2023-09-12T05:12:11;20.38;;;10.15;;
75417;SDS011;63997;52.112;5.420;2023-09-12T05:14:38;10.38;;;8.38;;
75417;SDS011;63997;52.112;5.420;2023-09-12T05:17:04;14.85;;;9.85;;
75417;SDS011;63997;52.112;5.420;2023-09-12T05:19:31;26.17;;;9.98;;
75417;SDS011;63997;52.112;5.420;2023-09-12T05:21:57;27.90;;;12.13;;
75417;SDS011;63997;52.112;5.420;2023-09-12T05:24:24;26.45;;;13.15;;
75417;SDS011;63997;52.112;5.420;2023-09-12T05:26:51;21.23;;;13.45;;
75417;SDS011;63997;52.112;5.420;2023-09-12T05:29:17;22.77;;;11.93;;
75417;SDS011;63997;52.112;5.420;2023-09-12T05:31:43;21.17;;;11.85;;
75417;SDS011;63997;52.112;5.420;2023-09-12T05:34:10;13.17;;;10.53;;
75417;SDS011;63997;52.112;5.420;2023-09-12T05:36:36;16.35;;;11.40;;
75417;SDS011;63997;52.112;5.420;2023-09-12T05:39:03;13.57;;;10.00;;
75417;SDS011;63997;52.112;5.420;2023-09-12T05:41:29;14.98;;;10.23;;
75417;SDS011;63997;52.112;5.420;2023-09-12T05:43:56;16.13;;;11.18;;
75417;SDS011;63997;52.112;5.420;2023-09-12T05:46:22;18.30;;;12.27;;
75417;SDS011;63997;52.112;5.420;2023-09-12T05:48:49;16.33;;;11.80;;
75417;SDS011;63997;52.112;5.420;2023-09-12T05:51:15;19.83;;;12.65;;
75417;SDS011;63997;52.112;5.420;2023-09-12T05:53:42;27.58;;;13.43;;
75417;SDS011;63997;52.112;5.420;2023-09-12T05:56:08;29.67;;;15.85;;
75417;SDS011;63997;52.112;5.420;2023-09-12T05:58:35;33.43;;;16.20;;
75417;SDS011;63997;52.112;5.420;2023-09-12T06:01:02;25.08;;;14.98;;
75417;SDS011;63997;52.112;5.420;2023-09-12T06:03:28;23.67;;;14.07;;
75417;SDS011;63997;52.112;5.420;2023-09-12T06:05:55;24.10;;;15.10;;
75417;SDS011;63997;52.112;5.420;2023-09-12T06:08:22;24.42;;;14.32;;
75417;SDS011;63997;52.112;5.420;2023-09-12T06:10:48;24.70;;;14.33;;
75417;SDS011;63997;52.112;5.420;2023-09-12T06:13:15;35.25;;;13.80;;
75417;SDS011;63997;52.112;5.420;2023-09-12T06:15:41;45.20;;;14.95;;
75417;SDS011;63997;52.112;5.420;2023-09-12T06:18:08;37.20;;;14.90;;
75417;SDS011;63997;52.112;5.420;2023-09-12T06:20:35;35.67;;;16.17;;
75417;SDS011;63997;52.112;5.420;2023-09-12T06:23:01;53.80;;;15.50;;
75417;SDS011;63997;52.112;5.420;2023-09-12T06:25:29;34.92;;;13.80;;
75417;SDS011;63997;52.112;5.420;2023-09-12T06:27:56;25.65;;;14.50;;
75417;SDS011;63997;52.112;5.420;2023-09-12T06:30:22;23.05;;;15.18;;
75417;SDS011;63997;52.112;5.420;2023-09-12T06:32:49;31.73;;;14.93;;
75417;SDS011;63997;52.112;5.420;2023-09-12T06:35:15;25.97;;;14.00;;
75417;SDS011;63997;52.112;5.420;2023-09-12T06:37:42;28.48;;;15.32;;
75417;SDS011;63997;52.112;5.420;2023-09-12T06:40:10;26.23;;;15.77;;
75417;SDS011;63997;52.112;5.420;2023-09-12T06:42:36;26.63;;;16.95;;
75417;SDS011;63997;52.112;5.420;2023-09-12T06:45:03;25.85;;;17.05;;
75417;SDS011;63997;52.112;5.420;2023-09-12T06:47:30;27.30;;;17.53;;
75417;SDS011;63997;52.112;5.420;2023-09-12T06:49:56;27.65;;;17.65;;
75417;SDS011;63997;52.112;5.420;2023-09-12T06:52:23;26.67;;;17.58;;
75417;SDS011;63997;52.112;5.420;2023-09-12T06:54:49;35.30;;;19.13;;
75417;SDS011;63997;52.112;5.420;2023-09-12T06:57:16;32.47;;;19.85;;
75417;SDS011;63997;52.112;5.420;2023-09-12T06:59:42;30.30;;;18.53;;
75417;SDS011;63997;52.112;5.420;2023-09-12T07:02:09;27.95;;;17.80;;
75417;SDS011;63997;52.112;5.420;2023-09-12T07:04:37;30.05;;;19.50;;
75417;SDS011;63997;52.112;5.420;2023-09-12T07:07:06;31.25;;;18.55;;
75417;SDS011;63997;52.112;5.420;2023-09-12T07:09:32;41.72;;;21.27;;
75417;SDS011;63997;52.112;5.420;2023-09-12T07:11:59;41.00;;;20.90;;
75417;SDS011;63997;52.112;5.420;2023-09-12T07:14:26;38.50;;;21.98;;
75417;SDS011;63997;52.112;5.420;2023-09-12T07:16:52;47.10;;;23.63;;
75417;SDS011;63997;52.112;5.420;2023-09-12T07:19:19;44.63;;;22.88;;
75417;SDS011;63997;52.112;5.420;2023-09-12T07:21:45;48.45;;;22.42;;
75417;SDS011;63997;52.112;5.420;2023-09-12T07:24:12;40.63;;;22.50;;
75417;SDS011;63997;52.112;5.420;2023-09-12T07:26:39;52.97;;;23.85;;
75417;SDS011;63997;52.112;5.420;2023-09-12T07:29:05;40.38;;;21.83;;
75417;SDS011;63997;52.112;5.420;2023-09-12T07:31:32;41.38;;;22.52;;
75417;SDS011;63997;52.112;5.420;2023-09-12T07:33:58;41.30;;;22.30;;
75417;SDS011;63997;52.112;5.420;2023-09-12T07:36:25;42.30;;;23.93;;
75417;SDS011;63997;52.112;5.420;2023-09-12T07:38:51;42.83;;;23.58;;
75417;SDS011;63997;52.112;5.420;2023-09-12T07:41:18;48.70;;;23.25;;
75417;SDS011;63997;52.112;5.420;2023-09-12T07:43:45;45.33;;;24.15;;
75417;SDS011;63997;52.112;5.420;2023-09-12T07:46:11;46.50;;;23.83;;
75417;SDS011;63997;52.112;5.420;2023-09-12T07:48:38;48.73;;;24.23;;
75417;SDS011;63997;52.112;5.420;2023-09-12T07:51:14;46.15;;;24.13;;
75417;SDS011;63997;52.112;5.420;2023-09-12T07:53:43;43.75;;;24.08;;
75417;SDS011;63997;52.112;5.420;2023-09-12T07:56:10;40.70;;;21.60;;
75417;SDS011;63997;52.112;5.420;2023-09-12T07:58:37;37.50;;;21.15;;
75417;SDS011;63997;52.112;5.420;2023-09-12T08:01:07;33.37;;;20.33;;
75417;SDS011;63997;52.112;5.420;2023-09-12T08:03:34;39.45;;;20.45;;
75417;SDS011;63997;52.112;5.420;2023-09-12T08:06:03;36.38;;;20.27;;
75417;SDS011;63997;52.112;5.420;2023-09-12T08:08:30;36.25;;;19.95;;
75417;SDS011;63997;52.112;5.420;2023-09-12T08:10:57;36.70;;;19.70;;
75417;SDS011;63997;52.112;5.420;2023-09-12T08:13:27;31.57;;;18.43;;
75417;SDS011;63997;52.112;5.420;2023-09-12T08:15:54;38.80;;;20.20;;
75417;SDS011;63997;52.112;5.420;2023-09-12T08:18:21;36.92;;;19.85;;
75417;SDS011;63997;52.112;5.420;2023-09-12T08:20:48;36.35;;;19.38;;
75417;SDS011;63997;52.112;5.420;2023-09-12T08:23:14;37.28;;;19.85;;
75417;SDS011;63997;52.112;5.420;2023-09-12T08:25:41;34.93;;;19.93;;
75417;SDS011;63997;52.112;5.420;2023-09-12T08:28:07;33.63;;;18.63;;
75417;SDS011;63997;52.112;5.420;2023-09-12T08:30:34;38.97;;;21.23;;
75417;SDS011;63997;52.112;5.420;2023-09-12T08:33:00;37.58;;;20.63;;
75417;SDS011;63997;52.112;5.420;2023-09-12T08:35:29;39.42;;;20.17;;
75417;SDS011;63997;52.112;5.420;2023-09-12T08:37:56;41.90;;;20.50;;
75417;SDS011;63997;52.112;5.420;2023-09-12T08:40:22;36.45;;;20.40;;
75417;SDS011;63997;52.112;5.420;2023-09-12T08:42:49;36.15;;;20.23;;
75417;SDS011;63997;52.112;5.420;2023-09-12T08:47:59;41.58;;;21.75;;
75417;SDS011;63997;52.112;5.420;2023-09-12T08:50:27;34.37;;;20.40;;
75417;SDS011;63997;52.112;5.420;2023-09-12T08:52:57;34.42;;;19.00;;
75417;SDS011;63997;52.112;5.420;2023-09-12T08:55:34;37.33;;;19.25;;
75417;SDS011;63997;52.112;5.420;2023-09-12T08:58:04;35.97;;;18.75;;
75417;SDS011;63997;52.112;5.420;2023-09-12T09:00:33;37.40;;;20.58;;
75417;SDS011;63997;52.112;5.420;2023-09-12T09:03:03;38.40;;;20.27;;
75417;SDS011;63997;52.112;5.420;2023-09-12T09:05:30;35.28;;;17.90;;
75417;SDS011;63997;52.112;5.420;2023-09-12T09:07:58;35.88;;;19.13;;
75417;SDS011;63997;52.112;5.420;2023-09-12T09:10:25;36.03;;;18.42;;
75417;SDS011;63997;52.112;5.420;2023-09-12T09:13:15;32.53;;;19.02;;
75417;SDS011;63997;52.112;5.420;2023-09-12T09:15:42;32.00;;;18.60;;
75417;SDS011;63997;52.112;5.420;2023-09-12T09:18:09;32.58;;;17.23;;
75417;SDS011;63997;52.112;5.420;2023-09-12T09:20:38;31.75;;;18.02;;
75417;SDS011;63997;52.112;5.420;2023-09-12T09:23:06;36.53;;;19.75;;
75417;SDS011;63997;52.112;5.420;2023-09-12T09:25:41;36.53;;;19.15;;
75417;SDS011;63997;52.112;5.420;2023-09-12T09:28:19;36.37;;;20.77;;
75417;SDS011;63997;52.112;5.420;2023-09-12T09:30:47;34.45;;;20.75;;
75417;SDS011;63997;52.112;5.420;2023-09-12T09:33:17;38.08;;;20.10;;
75417;SDS011;63997;52.112;5.420;2023-09-12T09:35:47;34.35;;;22.40;;
75417;SDS011;63997;52.112;5.420;2023-09-12T09:38:15;34.97;;;21.35;;
75417;SDS011;63997;52.112;5.420;2023-09-12T09:40:45;38.60;;;22.33;;
75417;SDS011;63997;52.112;5.420;2023-09-12T09:43:12;45.40;;;23.95;;
75417;SDS011;63997;52.112;5.420;2023-09-12T09:45:44;38.58;;;22.33;;
75417;SDS011;63997;52.112;5.420;2023-09-12T09:48:19;37.63;;;20.05;;
75417;SDS011;63997;52.112;5.420;2023-09-12T09:50:47;35.47;;;21.40;;
75417;SDS011;63997;52.112;5.420;2023-09-12T09:53:14;39.47;;;21.70;;
75417;SDS011;63997;52.112;5.420;2023-09-12T09:55:40;39.80;;;21.60;;
75417;SDS011;63997;52.112;5.420;2023-09-12T09:58:08;36.88;;;21.00;;
75417;SDS011;63997;52.112;5.420;2023-09-12T10:00:42;36.38;;;21.75;;
75417;SDS011;63997;52.112;5.420;2023-09-12T10:03:10;41.83;;;21.85;;
75417;SDS011;63997;52.112;5.420;2023-09-12T10:05:39;37.80;;;21.47;;
75417;SDS011;63997;52.112;5.420;2023-09-12T10:08:07;36.70;;;21.00;;
75417;SDS011;63997;52.112;5.420;2023-09-12T10:10:38;39.58;;;22.15;;
75417;SDS011;63997;52.112;5.420;2023-09-12T10:13:08;43.67;;;21.60;;
75417;SDS011;63997;52.112;5.420;2023-09-12T10:15:38;33.35;;;19.67;;
75417;SDS011;63997;52.112;5.420;2023-09-12T10:18:10;37.33;;;20.63;;
75417;SDS011;63997;52.112;5.420;2023-09-12T10:20:55;33.97;;;19.98;;
75417;SDS011;63997;52.112;5.420;2023-09-12T10:23:34;37.85;;;21.15;;
75417;SDS011;63997;52.112;5.420;2023-09-12T10:26:09;39.08;;;21.05;;
75417;SDS011;63997;52.112;5.420;2023-09-12T10:28:41;36.17;;;19.88;;
75417;SDS011;63997;52.112;5.420;2023-09-12T10:31:11;33.50;;;18.53;;
75417;SDS011;63997;52.112;5.420;2023-09-12T10:33:46;33.40;;;19.88;;
75417;SDS011;63997;52.112;5.420;2023-09-12T10:36:13;31.73;;;18.48;;
75417;SDS011;63997;52.112;5.420;2023-09-12T10:38:44;32.00;;;17.90;;
75417;SDS011;63997;52.112;5.420;2023-09-12T10:41:13;30.88;;;17.60;;
75417;SDS011;63997;52.112;5.420;2023-09-12T10:43:42;30.07;;;18.70;;
75417;SDS011;63997;52.112;5.420;2023-09-12T10:46:10;33.05;;;18.10;;
75417;SDS011;63997;52.112;5.420;2023-09-12T10:48:37;33.13;;;18.08;;
75417;SDS011;63997;52.112;5.420;2023-09-12T10:51:06;30.30;;;18.10;;
75417;SDS011;63997;52.112;5.420;2023-09-12T10:53:33;33.05;;;18.65;;
75417;SDS011;63997;52.112;5.420;2023-09-12T10:56:00;29.80;;;17.57;;
75417;SDS011;63997;52.112;5.420;2023-09-12T10:59:08;28.30;;;17.33;;
75417;SDS011;63997;52.112;5.420;2023-09-12T11:01:39;26.30;;;16.63;;
75417;SDS011;63997;52.112;5.420;2023-09-12T11:06:53;27.92;;;15.25;;
75417;SDS011;63997;52.112;5.420;2023-09-12T11:09:23;26.33;;;16.07;;
75417;SDS011;63997;52.112;5.420;2023-09-12T11:11:55;24.77;;;15.48;;
75417;SDS011;63997;52.112;5.420;2023-09-12T11:14:29;23.13;;;14.80;;
75417;SDS011;63997;52.112;5.420;2023-09-12T11:19:43;26.65;;;17.17;;
75417;SDS011;63997;52.112;5.420;2023-09-12T11:30:29;24.75;;;15.00;;
75417;SDS011;63997;52.112;5.420;2023-09-12T11:33:03;21.20;;;13.73;;
75417;SDS011;63997;52.112;5.420;2023-09-12T11:35:35;17.80;;;12.03;;
75417;SDS011;63997;52.112;5.420;2023-09-12T11:38:03;25.77;;;14.88;;
75417;SDS011;63997;52.112;5.420;2023-09-12T11:43:02;22.98;;;13.45;;
75417;SDS011;63997;52.112;5.420;2023-09-12T11:45:29;18.55;;;12.75;;
75417;SDS011;63997;52.112;5.420;2023-09-12T11:47:57;19.87;;;12.67;;
75417;SDS011;63997;52.112;5.420;2023-09-12T11:50:27;24.10;;;14.45;;
75417;SDS011;63997;52.112;5.420;2023-09-12T11:53:05;18.63;;;12.73;;
75417;SDS011;63997;52.112;5.420;2023-09-12T11:55:48;19.80;;;12.27;;
75417;SDS011;63997;52.112;5.420;2023-09-12T11:58:18;22.02;;;13.07;;
75417;SDS011;63997;52.112;5.420;2023-09-12T12:00:49;22.90;;;12.97;;
75417;SDS011;63997;52.112;5.420;2023-09-12T12:03:18;20.58;;;12.23;;
75417;SDS011;63997;52.112;5.420;2023-09-12T12:05:48;22.77;;;13.23;;
75417;SDS011;63997;52.112;5.420;2023-09-12T12:08:16;20.20;;;12.63;;
75417;SDS011;63997;52.112;5.420;2023-09-12T12:10:50;19.95;;;12.40;;
75417;SDS011;63997;52.112;5.420;2023-09-12T12:13:18;17.07;;;11.80;;
75417;SDS011;63997;52.112;5.420;2023-09-12T12:15:45;21.17;;;12.55;;
75417;SDS011;63997;52.112;5.420;2023-09-12T12:18:11;19.70;;;13.30;;
75417;SDS011;63997;52.112;5.420;2023-09-12T12:20:38;22.65;;;12.98;;
75417;SDS011;63997;52.112;5.420;2023-09-12T12:23:04;17.08;;;12.55;;
75417;SDS011;63997;52.112;5.420;2023-09-12T12:25:33;17.57;;;11.77;;
75417;SDS011;63997;52.112;5.420;2023-09-12T12:28:01;17.45;;;11.32;;
75417;SDS011;63997;52.112;5.420;2023-09-12T12:30:32;18.25;;;12.15;;
75417;SDS011;63997;52.112;5.420;2023-09-12T12:33:00;17.65;;;10.00;;
75417;SDS011;63997;52.112;5.420;2023-09-12T12:35:48;13.88;;;8.52;;
75417;SDS011;63997;52.112;5.420;2023-09-12T12:38:20;11.63;;;8.27;;
75417;SDS011;63997;52.112;5.420;2023-09-12T12:40:50;13.68;;;8.32;;
75417;SDS011;63997;52.112;5.420;2023-09-12T12:43:17;13.20;;;9.57;;
75417;SDS011;63997;52.112;5.420;2023-09-12T12:45:54;9.55;;;7.75;;
75417;SDS011;63997;52.112;5.420;2023-09-12T12:48:34;14.13;;;8.70;;
75417;SDS011;63997;52.112;5.420;2023-09-12T12:51:22;11.30;;;8.30;;
75417;SDS011;63997;52.112;5.420;2023-09-12T12:53:51;12.50;;;7.90;;
75417;SDS011;63997;52.112;5.420;2023-09-12T12:56:23;9.45;;;6.55;;
75417;SDS011;63997;52.112;5.420;2023-09-12T12:58:58;10.02;;;6.93;;
75417;SDS011;63997;52.112;5.420;2023-09-12T13:01:29;7.47;;;5.75;;
75417;SDS011;63997;52.112;5.420;2023-09-12T13:03:56;8.30;;;5.70;;
75417;SDS011;63997;52.112;5.420;2023-09-12T13:06:23;11.77;;;6.75;;
75417;SDS011;63997;52.112;5.420;2023-09-12T13:08:49;7.93;;;6.07;;
75417;SDS011;63997;52.112;5.420;2023-09-12T13:11:16;7.50;;;4.40;;
75417;SDS011;63997;52.112;5.420;2023-09-12T13:13:45;10.27;;;5.85;;
75417;SDS011;63997;52.112;5.420;2023-09-12T13:16:15;10.30;;;6.77;;
75417;SDS011;63997;52.112;5.420;2023-09-12T13:18:43;13.30;;;7.55;;
75417;SDS011;63997;52.112;5.420;2023-09-12T13:21:10;10.75;;;7.25;;
75417;SDS011;63997;52.112;5.420;2023-09-12T13:23:37;9.07;;;7.32;;
75417;SDS011;63997;52.112;5.420;2023-09-12T13:26:06;11.48;;;7.22;;
75417;SDS011;63997;52.112;5.420;2023-09-12T13:28:33;13.37;;;6.90;;
75417;SDS011;63997;52.112;5.420;2023-09-12T13:31:00;10.05;;;6.55;;
75417;SDS011;63997;52.112;5.420;2023-09-12T13:33:27;9.63;;;6.60;;
75417;SDS011;63997;52.112;5.420;2023-09-12T13:35:53;9.32;;;6.13;;
75417;SDS011;63997;52.112;5.420;2023-09-12T13:38:20;8.20;;;5.72;;
75417;SDS011;63997;52.112;5.420;2023-09-12T13:40:47;7.40;;;5.00;;
75417;SDS011;63997;52.112;5.420;2023-09-12T13:43:14;8.18;;;4.70;;
75417;SDS011;63997;52.112;5.420;2023-09-12T13:45:41;6.35;;;5.32;;
75417;SDS011;63997;52.112;5.420;2023-09-12T13:48:07;10.52;;;5.88;;
75417;SDS011;63997;52.112;5.420;2023-09-12T13:50:34;9.65;;;6.20;;
75417;SDS011;63997;52.112;5.420;2023-09-12T13:53:01;8.37;;;4.83;;
75417;SDS011;63997;52.112;5.420;2023-09-12T13:55:33;8.95;;;5.03;;
75417;SDS011;63997;52.112;5.420;2023-09-12T13:58:20;10.52;;;5.72;;
75417;SDS011;63997;52.112;5.420;2023-09-12T14:00:48;9.15;;;4.90;;
75417;SDS011;63997;52.112;5.420;2023-09-12T14:03:16;9.30;;;5.07;;
75417;SDS011;63997;52.112;5.420;2023-09-12T14:05:47;9.43;;;4.93;;
75417;SDS011;63997;52.112;5.420;2023-09-12T14:08:14;9.85;;;5.30;;
75417;SDS011;63997;52.112;5.420;2023-09-12T14:10:40;8.10;;;4.63;;
75417;SDS011;63997;52.112;5.420;2023-09-12T14:13:07;6.05;;;4.82;;
75417;SDS011;63997;52.112;5.420;2023-09-12T14:15:37;7.72;;;4.47;;
75417;SDS011;63997;52.112;5.420;2023-09-12T14:18:05;5.20;;;3.67;;
75417;SDS011;63997;52.112;5.420;2023-09-12T14:20:32;5.88;;;3.17;;
75417;SDS011;63997;52.112;5.420;2023-09-12T14:22:58;8.93;;;3.95;;
75417;SDS011;63997;52.112;5.420;2023-09-12T14:25:25;8.23;;;4.65;;
75417;SDS011;63997;52.112;5.420;2023-09-12T14:27:53;5.53;;;3.88;;
75417;SDS011;63997;52.112;5.420;2023-09-12T14:30:19;6.07;;;5.13;;
75417;SDS011;63997;52.112;5.420;2023-09-12T14:32:48;7.85;;;4.30;;
75417;SDS011;63997;52.112;5.420;2023-09-12T14:35:15;6.85;;;4.68;;
75417;SDS011;63997;52.112;5.420;2023-09-12T14:37:41;7.63;;;5.13;;
75417;SDS011;63997;52.112;5.420;2023-09-12T14:40:08;9.70;;;5.55;;
75417;SDS011;63997;52.112;5.420;2023-09-12T14:42:37;6.73;;;5.60;;
75417;SDS011;63997;52.112;5.420;2023-09-12T14:45:03;8.52;;;5.57;;
75417;SDS011;63997;52.112;5.420;2023-09-12T14:47:30;7.90;;;6.00;;
75417;SDS011;63997;52.112;5.420;2023-09-12T14:49:58;8.45;;;5.55;;
75417;SDS011;63997;52.112;5.420;2023-09-12T14:52:25;9.75;;;6.40;;
75417;SDS011;63997;52.112;5.420;2023-09-12T14:54:56;12.50;;;6.40;;